sensor_id;sensor_type;location;lat;lon;timestamp;pressure;altitude;pressure_sealevel;temperature
40968;BMP280;57377;45.130;6.038;2023-02-11T00:01:08;94305.81;;;2.23
40968;BMP280;57377;45.130;6.038;2023-02-11T00:03:34;94312.88;;;2.15
40968;BMP280;57377;45.130;6.038;2023-02-11T00:06:01;94306.16;;;2.21
40968;BMP280;57377;45.130;6.038;2023-02-11T00:08:27;94304.66;;;2.45
40968;BMP280;57377;45.130;6.038;2023-02-11T00:10:53;94305.38;;;2.20
40968;BMP280;57377;45.130;6.038;2023-02-11T00:13:19;94305.34;;;2.07
40968;BMP280;57377;45.130;6.038;2023-02-11T00:15:45;94301.66;;;2.29
40968;BMP280;57377;45.130;6.038;2023-02-11T00:18:10;94310.69;;;2.12
40968;BMP280;57377;45.130;6.038;2023-02-11T00:20:38;94309.28;;;1.97
40968;BMP280;57377;45.130;6.038;2023-02-11T00:23:03;94304.44;;;2.34
40968;BMP280;57377;45.130;6.038;2023-02-11T00:25:28;94307.19;;;2.26
40968;BMP280;57377;45.130;6.038;2023-02-11T00:27:54;94297.88;;;2.19
40968;BMP280;57377;45.130;6.038;2023-02-11T00:30:19;94298.63;;;2.00
40968;BMP280;57377;45.130;6.038;2023-02-11T00:32:44;94291.28;;;1.91
40968;BMP280;57377;45.130;6.038;2023-02-11T00:35:10;94287.97;;;2.09
40968;BMP280;57377;45.130;6.038;2023-02-11T00:37:35;94291.50;;;2.08
40968;BMP280;57377;45.130;6.038;2023-02-11T00:40:03;94284.38;;;2.04
40968;BMP280;57377;45.130;6.038;2023-02-11T00:42:28;94299.22;;;2.02
40968;BMP280;57377;45.130;6.038;2023-02-11T00:44:54;94283.22;;;2.00
40968;BMP280;57377;45.130;6.038;2023-02-11T00:47:19;94277.69;;;2.03
40968;BMP280;57377;45.130;6.038;2023-02-11T00:49:45;94284.03;;;2.13
40968;BMP280;57377;45.130;6.038;2023-02-11T00:52:10;94288.41;;;2.32
40968;BMP280;57377;45.130;6.038;2023-02-11T00:54:36;94277.78;;;2.60
40968;BMP280;57377;45.130;6.038;2023-02-11T00:57:01;94282.66;;;2.17
40968;BMP280;57377;45.130;6.038;2023-02-11T00:59:27;94282.56;;;1.91
40968;BMP280;57377;45.130;6.038;2023-02-11T01:01:52;94280.25;;;2.03
40968;BMP280;57377;45.130;6.038;2023-02-11T01:04:18;94279.72;;;2.14
40968;BMP280;57377;45.130;6.038;2023-02-11T01:06:43;94279.25;;;2.04
40968;BMP280;57377;45.130;6.038;2023-02-11T01:09:08;94282.72;;;1.77
40968;BMP280;57377;45.130;6.038;2023-02-11T01:11:34;94294.00;;;1.43
40968;BMP280;57377;45.130;6.038;2023-02-11T01:14:01;94293.47;;;1.54
40968;BMP280;57377;45.130;6.038;2023-02-11T01:16:26;94286.13;;;1.44
40968;BMP280;57377;45.130;6.038;2023-02-11T01:18:51;94292.16;;;1.70
40968;BMP280;57377;45.130;6.038;2023-02-11T01:21:17;94292.97;;;1.71
40968;BMP280;57377;45.130;6.038;2023-02-11T01:23:43;94290.19;;;1.66
40968;BMP280;57377;45.130;6.038;2023-02-11T01:26:08;94288.06;;;1.82
40968;BMP280;57377;45.130;6.038;2023-02-11T01:28:33;94290.38;;;1.64
40968;BMP280;57377;45.130;6.038;2023-02-11T01:31:00;94291.50;;;1.56
40968;BMP280;57377;45.130;6.038;2023-02-11T01:33:25;94287.84;;;1.77
40968;BMP280;57377;45.130;6.038;2023-02-11T01:35:51;94283.63;;;1.57
40968;BMP280;57377;45.130;6.038;2023-02-11T01:38:20;94278.19;;;1.79
40968;BMP280;57377;45.130;6.038;2023-02-11T01:40:58;94287.97;;;1.57
40968;BMP280;57377;45.130;6.038;2023-02-11T01:43:25;94286.97;;;1.58
40968;BMP280;57377;45.130;6.038;2023-02-11T01:46:05;94279.50;;;1.62
40968;BMP280;57377;45.130;6.038;2023-02-11T01:48:39;94286.72;;;1.46
40968;BMP280;57377;45.130;6.038;2023-02-11T01:51:13;94275.97;;;1.63
40968;BMP280;57377;45.130;6.038;2023-02-11T01:53:40;94289.38;;;1.65
40968;BMP280;57377;45.130;6.038;2023-02-11T01:56:26;94262.22;;;1.84
40968;BMP280;57377;45.130;6.038;2023-02-11T01:59:17;94269.06;;;1.70
40968;BMP280;57377;45.130;6.038;2023-02-11T02:01:49;94263.22;;;1.89
40968;BMP280;57377;45.130;6.038;2023-02-11T02:04:17;94277.16;;;1.67
40968;BMP280;57377;45.130;6.038;2023-02-11T02:06:45;94263.91;;;1.58
40968;BMP280;57377;45.130;6.038;2023-02-11T02:09:23;94269.44;;;1.21
40968;BMP280;57377;45.130;6.038;2023-02-11T02:11:50;94260.00;;;1.28
40968;BMP280;57377;45.130;6.038;2023-02-11T02:14:15;94269.53;;;1.40
40968;BMP280;57377;45.130;6.038;2023-02-11T02:16:41;94259.03;;;1.69
40968;BMP280;57377;45.130;6.038;2023-02-11T02:27:47;94256.44;;;1.69
40968;BMP280;57377;45.130;6.038;2023-02-11T02:36:02;94255.38;;;1.44
40968;BMP280;57377;45.130;6.038;2023-02-11T02:41:16;94239.25;;;1.57
40968;BMP280;57377;45.130;6.038;2023-02-11T02:43:44;94245.75;;;1.59
40968;BMP280;57377;45.130;6.038;2023-02-11T02:48:37;94245.16;;;1.57
40968;BMP280;57377;45.130;6.038;2023-02-11T02:54:09;94234.06;;;1.50
40968;BMP280;57377;45.130;6.038;2023-02-11T02:56:53;94243.19;;;1.19
40968;BMP280;57377;45.130;6.038;2023-02-11T03:02:00;94229.38;;;1.60
40968;BMP280;57377;45.130;6.038;2023-02-11T03:07:08;94218.59;;;1.84
40968;BMP280;57377;45.130;6.038;2023-02-11T03:09:39;94219.56;;;1.76
40968;BMP280;57377;45.130;6.038;2023-02-11T03:12:08;94216.03;;;1.84
40968;BMP280;57377;45.130;6.038;2023-02-11T03:14:35;94225.03;;;1.54
40968;BMP280;57377;45.130;6.038;2023-02-11T03:17:03;94229.34;;;1.47
40968;BMP280;57377;45.130;6.038;2023-02-11T03:19:39;94228.56;;;1.53
40968;BMP280;57377;45.130;6.038;2023-02-11T03:22:11;94220.75;;;1.74
40968;BMP280;57377;45.130;6.038;2023-02-11T03:24:38;94211.25;;;1.68
40968;BMP280;57377;45.130;6.038;2023-02-11T03:27:43;94216.16;;;1.17
40968;BMP280;57377;45.130;6.038;2023-02-11T03:30:15;94212.44;;;1.19
40968;BMP280;57377;45.130;6.038;2023-02-11T03:32:56;94206.44;;;1.46
40968;BMP280;57377;45.130;6.038;2023-02-11T03:35:27;94200.91;;;1.49
40968;BMP280;57377;45.130;6.038;2023-02-11T03:38:03;94195.69;;;1.23
40968;BMP280;57377;45.130;6.038;2023-02-11T03:40:31;94192.78;;;1.39
40968;BMP280;57377;45.130;6.038;2023-02-11T03:43:03;94194.38;;;1.00
40968;BMP280;57377;45.130;6.038;2023-02-11T03:45:31;94185.66;;;1.28
40968;BMP280;57377;45.130;6.038;2023-02-11T03:48:00;94189.56;;;1.24
40968;BMP280;57377;45.130;6.038;2023-02-11T03:50:29;94188.38;;;1.66
40968;BMP280;57377;45.130;6.038;2023-02-11T03:52:56;94187.78;;;1.71
40968;BMP280;57377;45.130;6.038;2023-02-11T03:55:25;94185.53;;;1.42
40968;BMP280;57377;45.130;6.038;2023-02-11T03:57:51;94191.53;;;1.22
40968;BMP280;57377;45.130;6.038;2023-02-11T04:00:17;94192.00;;;1.38
40968;BMP280;57377;45.130;6.038;2023-02-11T04:02:43;94186.53;;;1.48
40968;BMP280;57377;45.130;6.038;2023-02-11T04:05:12;94194.22;;;1.48
40968;BMP280;57377;45.130;6.038;2023-02-11T04:07:37;94192.56;;;1.34
40968;BMP280;57377;45.130;6.038;2023-02-11T04:10:03;94193.97;;;1.30
40968;BMP280;57377;45.130;6.038;2023-02-11T04:12:29;94192.56;;;1.27
40968;BMP280;57377;45.130;6.038;2023-02-11T04:14:54;94201.91;;;1.01
40968;BMP280;57377;45.130;6.038;2023-02-11T04:17:20;94190.47;;;1.04
40968;BMP280;57377;45.130;6.038;2023-02-11T04:19:45;94186.84;;;1.32
40968;BMP280;57377;45.130;6.038;2023-02-11T04:22:10;94193.34;;;1.28
40968;BMP280;57377;45.130;6.038;2023-02-11T04:24:36;94198.47;;;1.28
40968;BMP280;57377;45.130;6.038;2023-02-11T04:27:01;94194.53;;;1.32
40968;BMP280;57377;45.130;6.038;2023-02-11T04:29:27;94189.09;;;1.48
40968;BMP280;57377;45.130;6.038;2023-02-11T04:31:53;94190.00;;;1.34
40968;BMP280;57377;45.130;6.038;2023-02-11T04:34:19;94189.44;;;1.38
40968;BMP280;57377;45.130;6.038;2023-02-11T04:36:45;94182.97;;;1.42
40968;BMP280;57377;45.130;6.038;2023-02-11T04:39:10;94179.66;;;1.55
40968;BMP280;57377;45.130;6.038;2023-02-11T04:41:36;94179.00;;;1.40
40968;BMP280;57377;45.130;6.038;2023-02-11T04:44:01;94180.31;;;1.23
40968;BMP280;57377;45.130;6.038;2023-02-11T04:46:26;94182.47;;;0.80
40968;BMP280;57377;45.130;6.038;2023-02-11T04:48:52;94188.31;;;1.07
40968;BMP280;57377;45.130;6.038;2023-02-11T04:51:17;94175.88;;;1.51
40968;BMP280;57377;45.130;6.038;2023-02-11T04:53:43;94179.28;;;1.70
40968;BMP280;57377;45.130;6.038;2023-02-11T04:56:08;94174.75;;;1.72
40968;BMP280;57377;45.130;6.038;2023-02-11T04:58:34;94168.47;;;1.22
40968;BMP280;57377;45.130;6.038;2023-02-11T05:01:11;94173.88;;;1.46
40968;BMP280;57377;45.130;6.038;2023-02-11T05:03:36;94168.97;;;1.51
40968;BMP280;57377;45.130;6.038;2023-02-11T05:06:03;94183.19;;;1.47
40968;BMP280;57377;45.130;6.038;2023-02-11T05:08:29;94174.69;;;1.53
40968;BMP280;57377;45.130;6.038;2023-02-11T05:10:54;94185.91;;;1.46
40968;BMP280;57377;45.130;6.038;2023-02-11T05:13:19;94178.72;;;1.22
40968;BMP280;57377;45.130;6.038;2023-02-11T05:15:45;94173.34;;;1.57
40968;BMP280;57377;45.130;6.038;2023-02-11T05:18:10;94173.38;;;1.76
40968;BMP280;57377;45.130;6.038;2023-02-11T05:20:40;94172.56;;;1.63
40968;BMP280;57377;45.130;6.038;2023-02-11T05:23:05;94159.16;;;1.67
40968;BMP280;57377;45.130;6.038;2023-02-11T05:25:31;94160.56;;;1.89
40968;BMP280;57377;45.130;6.038;2023-02-11T05:27:56;94159.56;;;1.77
40968;BMP280;57377;45.130;6.038;2023-02-11T05:30:21;94169.81;;;1.64
40968;BMP280;57377;45.130;6.038;2023-02-11T05:32:47;94168.59;;;1.60
40968;BMP280;57377;45.130;6.038;2023-02-11T05:35:12;94164.34;;;1.93
40968;BMP280;57377;45.130;6.038;2023-02-11T05:37:38;94165.28;;;1.66
40968;BMP280;57377;45.130;6.038;2023-02-11T05:40:03;94164.22;;;1.42
40968;BMP280;57377;45.130;6.038;2023-02-11T05:42:29;94172.56;;;1.63
40968;BMP280;57377;45.130;6.038;2023-02-11T05:44:54;94168.53;;;1.41
40968;BMP280;57377;45.130;6.038;2023-02-11T05:47:19;94170.81;;;1.17
40968;BMP280;57377;45.130;6.038;2023-02-11T05:49:46;94165.00;;;0.96
40968;BMP280;57377;45.130;6.038;2023-02-11T05:52:11;94157.94;;;1.04
40968;BMP280;57377;45.130;6.038;2023-02-11T05:54:36;94163.97;;;0.91
40968;BMP280;57377;45.130;6.038;2023-02-11T05:57:02;94166.53;;;0.91
40968;BMP280;57377;45.130;6.038;2023-02-11T05:59:27;94160.56;;;1.11
40968;BMP280;57377;45.130;6.038;2023-02-11T06:01:53;94163.94;;;1.18
40968;BMP280;57377;45.130;6.038;2023-02-11T06:04:18;94161.44;;;1.37
40968;BMP280;57377;45.130;6.038;2023-02-11T06:06:43;94151.97;;;1.37
40968;BMP280;57377;45.130;6.038;2023-02-11T06:09:09;94147.91;;;1.09
40968;BMP280;57377;45.130;6.038;2023-02-11T06:11:36;94149.03;;;0.94
40968;BMP280;57377;45.130;6.038;2023-02-11T06:14:01;94153.50;;;1.32
40968;BMP280;57377;45.130;6.038;2023-02-11T06:16:26;94145.16;;;1.63
40968;BMP280;57377;45.130;6.038;2023-02-11T06:18:52;94147.47;;;1.46
40968;BMP280;57377;45.130;6.038;2023-02-11T06:21:17;94155.56;;;1.56
40968;BMP280;57377;45.130;6.038;2023-02-11T06:23:43;94146.06;;;1.37
40968;BMP280;57377;45.130;6.038;2023-02-11T06:26:16;94147.50;;;1.65
40968;BMP280;57377;45.130;6.038;2023-02-11T06:28:41;94154.13;;;1.34
40968;BMP280;57377;45.130;6.038;2023-02-11T06:31:07;94151.56;;;1.34
40968;BMP280;57377;45.130;6.038;2023-02-11T06:33:33;94158.88;;;1.43
40968;BMP280;57377;45.130;6.038;2023-02-11T06:35:59;94150.81;;;1.46
40968;BMP280;57377;45.130;6.038;2023-02-11T06:38:25;94154.13;;;1.34
40968;BMP280;57377;45.130;6.038;2023-02-11T06:40:50;94153.91;;;1.29
40968;BMP280;57377;45.130;6.038;2023-02-11T06:43:16;94161.28;;;1.05
40968;BMP280;57377;45.130;6.038;2023-02-11T06:45:41;94157.81;;;1.19
40968;BMP280;57377;45.130;6.038;2023-02-11T06:48:07;94156.38;;;1.03
40968;BMP280;57377;45.130;6.038;2023-02-11T06:50:32;94159.34;;;1.07
40968;BMP280;57377;45.130;6.038;2023-02-11T06:52:58;94164.59;;;1.32
40968;BMP280;57377;45.130;6.038;2023-02-11T06:55:24;94162.59;;;1.34
40968;BMP280;57377;45.130;6.038;2023-02-11T06:57:49;94163.34;;;1.22
40968;BMP280;57377;45.130;6.038;2023-02-11T07:00:15;94162.16;;;1.18
40968;BMP280;57377;45.130;6.038;2023-02-11T07:02:40;94169.53;;;0.94
40968;BMP280;57377;45.130;6.038;2023-02-11T07:05:06;94166.94;;;1.34
40968;BMP280;57377;45.130;6.038;2023-02-11T07:07:31;94169.28;;;1.23
40968;BMP280;57377;45.130;6.038;2023-02-11T07:09:57;94173.16;;;1.12
40968;BMP280;57377;45.130;6.038;2023-02-11T07:12:22;94155.56;;;1.56
40968;BMP280;57377;45.130;6.038;2023-02-11T07:14:47;94162.66;;;1.54
40968;BMP280;57377;45.130;6.038;2023-02-11T07:17:13;94168.34;;;1.43
40968;BMP280;57377;45.130;6.038;2023-02-11T07:19:39;94173.28;;;1.38
40968;BMP280;57377;45.130;6.038;2023-02-11T07:22:04;94176.56;;;1.78
40968;BMP280;57377;45.130;6.038;2023-02-11T07:24:29;94182.41;;;1.59
40968;BMP280;57377;45.130;6.038;2023-02-11T07:26:55;94182.03;;;1.56
40968;BMP280;57377;45.130;6.038;2023-02-11T07:29:20;94181.44;;;1.60
40968;BMP280;57377;45.130;6.038;2023-02-11T07:31:46;94187.97;;;1.69
40968;BMP280;57377;45.130;6.038;2023-02-11T07:34:11;94168.28;;;1.89
40968;BMP280;57377;45.130;6.038;2023-02-11T07:36:36;94176.75;;;1.83
40968;BMP280;57377;45.130;6.038;2023-02-11T07:39:02;94181.19;;;1.43
40968;BMP280;57377;45.130;6.038;2023-02-11T07:41:28;94178.63;;;1.43
40968;BMP280;57377;45.130;6.038;2023-02-11T07:43:54;94185.38;;;1.10
40968;BMP280;57377;45.130;6.038;2023-02-11T07:46:22;94175.44;;;1.41
40968;BMP280;57377;45.130;6.038;2023-02-11T07:48:48;94175.28;;;1.42
40968;BMP280;57377;45.130;6.038;2023-02-11T07:51:19;94182.25;;;1.67
40968;BMP280;57377;45.130;6.038;2023-02-11T07:53:45;94180.13;;;1.96
40968;BMP280;57377;45.130;6.038;2023-02-11T07:56:12;94185.22;;;1.71
40968;BMP280;57377;45.130;6.038;2023-02-11T07:58:38;94186.41;;;1.68
40968;BMP280;57377;45.130;6.038;2023-02-11T08:01:08;94181.00;;;1.51
40968;BMP280;57377;45.130;6.038;2023-02-11T08:03:35;94175.91;;;1.57
40968;BMP280;57377;45.130;6.038;2023-02-11T08:06:05;94190.69;;;1.55
40968;BMP280;57377;45.130;6.038;2023-02-11T08:08:31;94189.94;;;1.61
40968;BMP280;57377;45.130;6.038;2023-02-11T08:10:57;94187.16;;;1.62
40968;BMP280;57377;45.130;6.038;2023-02-11T08:13:22;94194.31;;;1.73
40968;BMP280;57377;45.130;6.038;2023-02-11T08:15:47;94192.56;;;1.80
40968;BMP280;57377;45.130;6.038;2023-02-11T08:18:13;94189.59;;;1.90
40968;BMP280;57377;45.130;6.038;2023-02-11T08:20:38;94193.78;;;1.97
40968;BMP280;57377;45.130;6.038;2023-02-11T08:23:07;94194.94;;;2.01
40968;BMP280;57377;45.130;6.038;2023-02-11T08:25:32;94185.47;;;1.95
40968;BMP280;57377;45.130;6.038;2023-02-11T08:27:58;94202.41;;;1.83
40968;BMP280;57377;45.130;6.038;2023-02-11T08:30:23;94193.53;;;1.86
40968;BMP280;57377;45.130;6.038;2023-02-11T08:32:49;94193.38;;;2.00
40968;BMP280;57377;45.130;6.038;2023-02-11T08:35:15;94197.72;;;1.93
40968;BMP280;57377;45.130;6.038;2023-02-11T08:37:40;94195.06;;;1.67
40968;BMP280;57377;45.130;6.038;2023-02-11T08:40:06;94196.59;;;1.56
40968;BMP280;57377;45.130;6.038;2023-02-11T08:42:31;94199.34;;;1.48
40968;BMP280;57377;45.130;6.038;2023-02-11T08:44:56;94201.78;;;1.68
40968;BMP280;57377;45.130;6.038;2023-02-11T08:47:22;94203.41;;;1.89
40968;BMP280;57377;45.130;6.038;2023-02-11T08:49:47;94204.38;;;1.81
40968;BMP280;57377;45.130;6.038;2023-02-11T08:52:12;94202.25;;;2.04
40968;BMP280;57377;45.130;6.038;2023-02-11T08:54:38;94212.69;;;1.83
40968;BMP280;57377;45.130;6.038;2023-02-11T08:57:03;94206.56;;;1.84
40968;BMP280;57377;45.130;6.038;2023-02-11T08:59:29;94204.97;;;1.90
40968;BMP280;57377;45.130;6.038;2023-02-11T09:01:54;94209.69;;;1.80
40968;BMP280;57377;45.130;6.038;2023-02-11T09:04:21;94208.88;;;1.66
40968;BMP280;57377;45.130;6.038;2023-02-11T09:06:46;94208.16;;;1.85
40968;BMP280;57377;45.130;6.038;2023-02-11T09:09:13;94196.34;;;2.10
40968;BMP280;57377;45.130;6.038;2023-02-11T09:11:39;94204.28;;;2.53
40968;BMP280;57377;45.130;6.038;2023-02-11T09:14:06;94203.66;;;2.83
40968;BMP280;57377;45.130;6.038;2023-02-11T09:16:35;94207.38;;;3.06
40968;BMP280;57377;45.130;6.038;2023-02-11T09:19:02;94210.91;;;3.74
40968;BMP280;57377;45.130;6.038;2023-02-11T09:21:28;94197.47;;;4.40
40968;BMP280;57377;45.130;6.038;2023-02-11T09:23:54;94205.19;;;5.30
40968;BMP280;57377;45.130;6.038;2023-02-11T09:26:25;94191.06;;;6.14
40968;BMP280;57377;45.130;6.038;2023-02-11T09:28:51;94199.03;;;7.05
40968;BMP280;57377;45.130;6.038;2023-02-11T09:31:23;94202.16;;;8.02
40968;BMP280;57377;45.130;6.038;2023-02-11T09:33:51;94190.00;;;8.74
40968;BMP280;57377;45.130;6.038;2023-02-11T09:36:22;94184.59;;;9.46
40968;BMP280;57377;45.130;6.038;2023-02-11T09:38:48;94185.50;;;9.93
40968;BMP280;57377;45.130;6.038;2023-02-11T09:43:53;94188.41;;;10.18
40968;BMP280;57377;45.130;6.038;2023-02-11T09:46:20;94180.66;;;10.23
40968;BMP280;57377;45.130;6.038;2023-02-11T09:48:48;94191.63;;;10.04
40968;BMP280;57377;45.130;6.038;2023-02-11T09:53:51;94181.03;;;10.10
40968;BMP280;57377;45.130;6.038;2023-02-11T09:56:17;94185.75;;;10.39
40968;BMP280;57377;45.130;6.038;2023-02-11T09:58:43;94185.34;;;10.73
40968;BMP280;57377;45.130;6.038;2023-02-11T10:04:13;94190.28;;;10.75
40968;BMP280;57377;45.130;6.038;2023-02-11T10:06:48;94187.94;;;10.73
40968;BMP280;57377;45.130;6.038;2023-02-11T10:17:37;94203.03;;;9.12
40968;BMP280;57377;45.130;6.038;2023-02-11T10:21:18;94194.63;;;9.37
40968;BMP280;57377;45.130;6.038;2023-02-11T10:23:39;94202.75;;;9.25
40968;BMP280;57377;45.130;6.038;2023-02-11T10:26:12;94187.53;;;9.17
40968;BMP280;57377;45.130;6.038;2023-02-11T10:28:39;94201.91;;;9.03
40968;BMP280;57377;45.130;6.038;2023-02-11T10:31:07;94203.13;;;8.84
40968;BMP280;57377;45.130;6.038;2023-02-11T10:33:58;94201.88;;;8.70
40968;BMP280;57377;45.130;6.038;2023-02-11T10:36:35;94194.13;;;8.43
40968;BMP280;57377;45.130;6.038;2023-02-11T10:39:11;94186.88;;;8.29
40968;BMP280;57377;45.130;6.038;2023-02-11T10:41:42;94192.41;;;8.48
40968;BMP280;57377;45.130;6.038;2023-02-11T10:44:22;94192.25;;;8.55
40968;BMP280;57377;45.130;6.038;2023-02-11T10:46:49;94182.97;;;8.59
40968;BMP280;57377;45.130;6.038;2023-02-11T10:49:39;94179.81;;;8.57
40968;BMP280;57377;45.130;6.038;2023-02-11T10:52:25;94178.44;;;8.22
40968;BMP280;57377;45.130;6.038;2023-02-11T10:57:37;94176.69;;;8.55
40968;BMP280;57377;45.130;6.038;2023-02-11T11:00:34;94177.78;;;8.59
40968;BMP280;57377;45.130;6.038;2023-02-11T11:03:03;94179.63;;;8.74
40968;BMP280;57377;45.130;6.038;2023-02-11T11:06:03;94171.03;;;8.90
40968;BMP280;57377;45.130;6.038;2023-02-11T11:08:41;94159.88;;;8.90
40968;BMP280;57377;45.130;6.038;2023-02-11T11:11:13;94167.50;;;8.96
40968;BMP280;57377;45.130;6.038;2023-02-11T11:13:41;94167.56;;;8.68
40968;BMP280;57377;45.130;6.038;2023-02-11T11:16:16;94159.59;;;8.26
40968;BMP280;57377;45.130;6.038;2023-02-11T11:18:44;94158.31;;;8.72
40968;BMP280;57377;45.130;6.038;2023-02-11T11:21:18;94153.91;;;8.89
40968;BMP280;57377;45.130;6.038;2023-02-11T11:23:51;94154.53;;;8.96
40968;BMP280;57377;45.130;6.038;2023-02-11T11:26:20;94155.47;;;9.06
40968;BMP280;57377;45.130;6.038;2023-02-11T11:29:35;94152.72;;;9.13
40968;BMP280;57377;45.130;6.038;2023-02-11T11:32:21;94158.28;;;9.05
40968;BMP280;57377;45.130;6.038;2023-02-11T11:34:51;94149.28;;;9.28
40968;BMP280;57377;45.130;6.038;2023-02-11T11:37:37;94140.66;;;8.91
40968;BMP280;57377;45.130;6.038;2023-02-11T11:40:55;94146.66;;;9.45
40968;BMP280;57377;45.130;6.038;2023-02-11T11:43:27;94138.88;;;9.28
